KBED/BED METAR and TAF weather

Enter ICAO airport designator
Station Type Date Time Source
KBED METAR 2019/06/26 22:56 UTC NOAA

KBED 262256Z 10008KT 10SM CLR 23/17 A2999 RMK AO2 SLP166 T02330167


Station Type Date Time Source
KBED Decoded METAR 2019/06/26 22:56 UTC NOAA

BEDFORD HANSCOM FIELD, MA, United States (KBED) 42-28N 071-18W 50M
Jun 26, 2019 - 06:56 PM EDT / 2019.06.26 2256 UTC
Wind: from the E (100 degrees) at 9 MPH (8 KT):0
Visibility: 10 mile(s):0
Sky conditions: clear
Temperature: 73.9 F (23.3 C)
Dew Point: 62.1 F (16.7 C)
Relative Humidity: 66%
Pressure (altimeter): 29.99 in. Hg (1015 hPa)
ob: KBED 262256Z 10008KT 10SM CLR 23/17 A2999 RMK AO2 SLP166 T02330167
cycle: 23

Station Type Date Time Source
KBED TAF 2019/06/26 20:12 UTC NOAA

TAF
AMD KBED 262009Z 2620/2718 17004KT P6SM SCT025
FM270000 11004KT 6SM BR BKN005
FM270300 00000KT 2SM BR BKN003
FM271100 00000KT 3/4SM BR OVC003
FM271500 VRB03KT P6SM SCT100

Example: see airport list